Time;durP1;ratioP1;P1;durP2;ratioP2;P2;SDS_P1;SDS_P2;PMS_P1;PMS_P2;Temp;Humidity;BMP_temperature;BMP_pressure;BME280_temperature;BME280_humidity;BME280_pressure;Samples;Min_cycle;Max_cycle;Signal;HPM_P1;HPM_P2
2023/01/25 00:00:48;;;;;;;26.30;17.10;;;10.00;45.10;;;;;;4994601;28;20489;-82
2023/01/25 00:03:16;;;;;;;25.97;17.20;;;10.00;45.50;;;;;;4999229;28;20497;-82
2023/01/25 00:05:44;;;;;;;29.23;18.43;;;9.90;45.60;;;;;;4996451;28;20449;-82
2023/01/25 00:08:12;;;;;;;25.23;16.43;;;10.00;45.80;;;;;;4997467;28;20464;-83
2023/01/25 00:10:40;;;;;;;31.17;17.17;;;10.10;45.30;;;;;;4997898;28;20464;-82
2023/01/25 00:13:09;;;;;;;29.77;18.50;;;10.00;44.80;;;;;;4999285;28;20469;-82
2023/01/25 00:15:37;;;;;;;32.30;18.07;;;9.90;45.30;;;;;;4992269;28;20453;-83
2023/01/25 00:18:05;;;;;;;28.30;18.13;;;9.70;46.00;;;;;;4997578;28;20457;-82
2023/01/25 00:20:33;;;;;;;32.93;18.17;;;9.60;45.90;;;;;;4998021;28;20576;-83
2023/01/25 00:23:01;;;;;;;28.20;18.17;;;9.50;46.10;;;;;;4991221;28;20497;-82
2023/01/25 00:25:29;;;;;;;29.00;18.77;;;9.50;46.70;;;;;;4994868;28;20473;-80
2023/01/25 00:27:57;;;;;;;33.37;19.60;;;9.70;46.60;;;;;;4996737;28;20961;-82
2023/01/25 00:30:26;;;;;;;30.67;19.30;;;9.70;46.10;;;;;;4998950;28;20477;-82
2023/01/25 00:32:58;;;;;;;30.87;19.10;;;9.50;45.80;;;;;;4994218;28;20455;-81
2023/01/25 00:35:30;;;;;;;31.60;19.83;;;9.50;46.30;;;;;;4997674;28;20449;-81
2023/01/25 00:37:58;;;;;;;32.53;20.07;;;9.50;46.20;;;;;;4997017;28;20459;-81
2023/01/25 00:40:26;;;;;;;32.93;20.00;;;9.50;47.10;;;;;;4996903;28;20527;-81
2023/01/25 00:42:54;;;;;;;34.57;20.97;;;9.60;46.60;;;;;;4991948;28;20466;-81
2023/01/25 00:45:22;;;;;;;35.90;20.70;;;9.60;46.00;;;;;;4995500;28;20456;-80
2023/01/25 00:47:54;;;;;;;35.53;21.00;;;9.50;46.80;;;;;;4987103;28;20442;-81
2023/01/25 00:50:21;;;;;;;33.50;20.30;;;9.40;46.40;;;;;;4984160;28;20484;-81
2023/01/25 00:52:49;;;;;;;36.40;21.93;;;9.50;46.70;;;;;;4992364;28;20447;-80
2023/01/25 00:55:17;;;;;;;34.00;20.83;;;9.70;46.70;;;;;;4990733;28;20470;-81
2023/01/25 00:57:45;;;;;;;37.37;21.80;;;9.70;47.10;;;;;;4991262;28;20448;-81
2023/01/25 01:00:14;;;;;;;34.70;21.47;;;9.80;46.20;;;;;;4985667;28;20458;-81
2023/01/25 01:02:42;;;;;;;34.60;20.00;;;9.80;45.90;;;;;;4989754;28;20479;-81
2023/01/25 01:05:12;;;;;;;35.40;21.23;;;9.80;46.20;;;;;;4994756;28;20453;-80
2023/01/25 01:07:40;;;;;;;33.20;20.27;;;9.90;46.10;;;;;;4994877;28;20457;-81
2023/01/25 01:10:08;;;;;;;37.50;21.10;;;9.90;46.00;;;;;;4986851;28;20554;-80
2023/01/25 01:12:36;;;;;;;36.97;21.40;;;9.90;45.90;;;;;;4994937;28;20548;-81
2023/01/25 01:15:06;;;;;;;34.90;21.70;;;9.90;46.20;;;;;;4986916;28;20453;-81
2023/01/25 01:17:34;;;;;;;33.60;20.60;;;9.90;46.10;;;;;;4990537;28;20560;-81
2023/01/25 01:20:03;;;;;;;37.03;22.30;;;9.90;46.20;;;;;;4993050;28;20473;-81
2023/01/25 01:22:32;;;;;;;36.73;21.50;;;9.80;46.10;;;;;;4986286;28;20459;-81
2023/01/25 01:25:00;;;;;;;36.87;22.03;;;9.80;46.00;;;;;;4994543;28;20475;-82
2023/01/25 01:27:28;;;;;;;35.70;21.57;;;9.80;46.20;;;;;;4996046;28;20448;-82
2023/01/25 01:29:56;;;;;;;37.07;22.70;;;9.70;46.20;;;;;;4986177;28;20471;-80
2023/01/25 01:32:24;;;;;;;37.10;22.53;;;9.60;46.00;;;;;;4994404;28;20533;-80
2023/01/25 01:34:53;;;;;;;35.93;21.63;;;9.50;46.10;;;;;;4990895;28;20452;-81
2023/01/25 01:37:20;;;;;;;35.40;21.90;;;9.40;46.50;;;;;;4994195;28;20444;-81
2023/01/25 01:39:51;;;;;;;34.47;21.00;;;9.40;46.90;;;;;;4983317;28;20470;-79
2023/01/25 01:42:19;;;;;;;39.20;22.70;;;9.60;47.10;;;;;;4990568;28;20536;-79
2023/01/25 01:44:49;;;;;;;38.93;23.40;;;9.70;46.40;;;;;;4992530;28;20477;-80
2023/01/25 01:47:20;;;;;;;36.70;22.00;;;9.70;46.10;;;;;;4986470;28;20450;-82
2023/01/25 01:49:51;;;;;;;40.90;23.37;;;9.70;46.10;;;;;;4990465;28;20484;-82
2023/01/25 01:52:20;;;;;;;40.73;23.87;;;9.70;46.20;;;;;;4993804;28;20481;-79
2023/01/25 01:54:51;;;;;;;38.63;23.00;;;9.70;46.30;;;;;;4993854;28;20445;-79
2023/01/25 01:57:21;;;;;;;37.13;22.90;;;9.40;46.00;;;;;;4986236;28;20460;-80
2023/01/25 01:59:50;;;;;;;38.30;22.53;;;9.30;46.30;;;;;;4999520;28;20460;-80
2023/01/25 02:02:18;;;;;;;38.83;22.10;;;9.30;47.00;;;;;;4987474;28;20449;-80
2023/01/25 02:04:47;;;;;;;42.70;25.10;;;9.30;46.60;;;;;;4992625;28;20561;-80
2023/01/25 02:07:16;;;;;;;41.90;23.90;;;9.20;46.70;;;;;;4988244;28;20477;-81
2023/01/25 02:09:44;;;;;;;41.80;24.27;;;9.30;47.10;;;;;;4992890;28;20477;-79
2023/01/25 02:12:13;;;;;;;43.33;23.30;;;9.30;46.90;;;;;;4994626;28;20465;-80
2023/01/25 02:14:45;;;;;;;40.43;23.03;;;9.30;47.20;;;;;;4995109;28;20449;-81
2023/01/25 02:17:13;;;;;;;38.43;23.50;;;9.40;46.70;;;;;;4998696;28;20464;-81
2023/01/25 02:19:43;;;;;;;42.73;25.07;;;9.30;47.20;;;;;;4993961;28;20480;-80
2023/01/25 02:22:12;;;;;;;42.13;24.10;;;9.30;47.30;;;;;;4990001;28;20452;-82
2023/01/25 02:24:40;;;;;;;40.50;23.70;;;9.40;47.00;;;;;;5010964;28;20485;-81
2023/01/25 02:27:09;;;;;;;41.37;23.83;;;9.20;47.00;;;;;;5007897;28;20450;-81
2023/01/25 02:29:36;;;;;;;39.47;23.93;;;9.30;47.30;;;;;;5009446;28;20471;-82
2023/01/25 02:32:05;;;;;;;41.80;23.57;;;9.20;47.70;;;;;;5007619;28;20468;-81
2023/01/25 02:34:34;;;;;;;43.50;25.40;;;9.20;47.90;;;;;;5010970;28;20452;-81
2023/01/25 02:37:02;;;;;;;46.93;25.97;;;9.00;47.20;;;;;;5003781;28;20418;-82
2023/01/25 02:39:30;;;;;;;43.63;24.60;;;8.90;47.60;;;;;;4996776;28;20481;-82
2023/01/25 02:41:58;;;;;;;43.27;24.90;;;8.90;48.20;;;;;;5002435;28;20479;-82
2023/01/25 02:44:28;;;;;;;40.77;24.67;;;9.00;47.70;;;;;;5020462;28;20473;-82
2023/01/25 02:47:00;;;;;;;45.23;25.73;;;9.10;48.00;;;;;;4995024;28;20456;-82
2023/01/25 02:49:28;;;;;;;42.57;25.03;;;9.10;47.80;;;;;;4998288;28;20489;-82
2023/01/25 02:51:56;;;;;;;42.30;24.30;;;9.00;48.00;;;;;;4997276;28;20445;-82
2023/01/25 02:54:24;;;;;;;42.73;24.77;;;8.90;48.30;;;;;;4991620;28;20468;-82
2023/01/25 02:56:52;;;;;;;40.30;23.63;;;8.80;48.20;;;;;;4990353;28;20512;-82
2023/01/25 02:59:20;;;;;;;41.43;24.03;;;8.90;48.40;;;;;;4995528;28;20455;-82
2023/01/25 03:01:50;;;;;;;42.27;23.63;;;9.00;48.00;;;;;;4996496;28;20991;-82
2023/01/25 03:04:18;;;;;;;41.20;24.70;;;9.00;48.00;;;;;;5002439;28;20477;-82
2023/01/25 03:06:46;;;;;;;38.63;23.10;;;9.00;47.90;;;;;;4996462;28;20505;-82
2023/01/25 03:09:14;;;;;;;42.97;24.60;;;8.90;47.80;;;;;;4995306;28;20452;-82
2023/01/25 03:11:42;;;;;;;41.93;24.10;;;8.90;47.90;;;;;;4992978;28;20477;-81
2023/01/25 03:14:11;;;;;;;46.53;26.30;;;8.90;48.30;;;;;;4992577;28;20463;-82
2023/01/25 03:16:39;;;;;;;44.73;25.43;;;9.00;48.10;;;;;;4996205;28;20456;-82
2023/01/25 03:19:09;;;;;;;49.23;25.53;;;9.00;48.10;;;;;;4996637;28;20476;-81
2023/01/25 03:21:37;;;;;;;47.30;25.80;;;9.10;47.80;;;;;;4995269;28;20456;-82
2023/01/25 03:24:06;;;;;;;49.30;27.60;;;9.20;48.30;;;;;;4999456;28;20472;-82
2023/01/25 03:27:09;;;;;;;48.60;26.83;;;9.30;48.00;;;;;;4999024;28;20472;-82
2023/01/25 03:29:23;;;;;;;49.80;27.90;;;9.30;47.40;;;;;;4999091;28;20466;-82
2023/01/25 03:31:51;;;;;;;50.07;28.70;;;9.30;48.00;;;;;;4998162;28;20453;-82
2023/01/25 03:34:21;;;;;;;54.37;28.57;;;9.30;47.80;;;;;;4997736;28;20481;-82
2023/01/25 03:36:48;;;;;;;51.03;28.83;;;9.40;47.90;;;;;;4996803;28;20460;-82
2023/01/25 03:39:16;;;;;;;54.17;29.63;;;9.50;48.10;;;;;;4999081;28;21170;-82
2023/01/25 03:41:44;;;;;;;50.80;27.60;;;9.30;47.20;;;;;;4998616;28;20479;-81
2023/01/25 03:44:12;;;;;;;56.13;28.70;;;9.30;47.40;;;;;;4993331;28;20505;-82
2023/01/25 03:46:40;;;;;;;52.13;27.33;;;9.10;47.70;;;;;;4998045;28;20456;-82
2023/01/25 03:49:09;;;;;;;47.00;26.13;;;8.90;48.20;;;;;;4997897;28;20510;-81
2023/01/25 03:51:38;;;;;;;58.63;30.00;;;8.90;48.60;;;;;;4997819;28;20449;-82
2023/01/25 03:54:07;;;;;;;52.00;28.03;;;8.90;48.30;;;;;;4997101;28;20451;-82
2023/01/25 03:56:35;;;;;;;49.57;27.33;;;8.70;48.40;;;;;;4995618;28;20475;-82
2023/01/25 03:59:03;;;;;;;50.70;26.63;;;8.80;49.00;;;;;;4996443;28;20540;-80
2023/01/25 04:01:32;;;;;;;52.00;26.30;;;8.80;48.50;;;;;;4991573;28;20445;-82
2023/01/25 04:04:00;;;;;;;50.07;26.73;;;8.80;48.30;;;;;;4995653;28;20452;-82
2023/01/25 04:06:28;;;;;;;50.57;27.73;;;8.80;49.00;;;;;;4989456;28;20461;-81
2023/01/25 04:08:58;;;;;;;51.10;27.17;;;8.90;48.80;;;;;;4996561;28;20461;-82
2023/01/25 04:11:26;;;;;;;48.77;26.00;;;8.90;48.40;;;;;;4996321;28;20559;-82
2023/01/25 04:13:54;;;;;;;47.73;26.07;;;8.90;48.90;;;;;;4998253;28;20544;-82
2023/01/25 04:16:22;;;;;;;52.23;26.83;;;9.10;48.60;;;;;;4993973;28;20484;-82
2023/01/25 04:18:50;;;;;;;48.70;25.60;;;9.10;48.40;;;;;;4995967;28;20969;-82
2023/01/25 04:21:19;;;;;;;50.73;26.43;;;9.20;48.30;;;;;;4995026;28;20484;-82
2023/01/25 04:23:47;;;;;;;51.57;25.47;;;9.10;48.40;;;;;;4991316;28;20519;-81
2023/01/25 04:26:16;;;;;;;50.87;27.40;;;9.10;48.70;;;;;;4991403;28;20481;-82
2023/01/25 04:28:45;;;;;;;48.33;26.00;;;9.00;48.50;;;;;;4993942;28;20456;-82
2023/01/25 04:31:13;;;;;;;45.33;26.07;;;9.00;48.00;;;;;;4991970;28;20465;-82
2023/01/25 04:33:41;;;;;;;53.60;28.13;;;9.00;48.40;;;;;;4992720;28;20552;-82
2023/01/25 04:36:09;;;;;;;46.67;26.17;;;8.90;48.50;;;;;;4987565;28;20445;-82
2023/01/25 04:38:37;;;;;;;49.73;27.57;;;8.90;48.60;;;;;;4996108;28;20528;-82
2023/01/25 04:41:05;;;;;;;48.10;26.10;;;8.90;48.30;;;;;;4995218;28;20473;-81
2023/01/25 04:43:35;;;;;;;45.80;25.10;;;8.90;48.60;;;;;;4989538;28;20457;-82
2023/01/25 04:46:02;;;;;;;49.30;25.87;;;8.80;48.70;;;;;;4987704;28;20474;-82
2023/01/25 04:48:30;;;;;;;47.70;25.47;;;8.80;48.70;;;;;;4988827;28;20948;-82
2023/01/25 04:50:58;;;;;;;47.40;25.50;;;8.70;48.40;;;;;;4996097;28;20477;-82
2023/01/25 04:53:27;;;;;;;47.23;25.30;;;8.80;48.70;;;;;;4992418;28;20460;-82
2023/01/25 04:55:54;;;;;;;44.63;25.17;;;8.80;48.90;;;;;;4988243;28;20475;-82
2023/01/25 04:58:22;;;;;;;45.70;24.53;;;8.90;48.60;;;;;;4990314;28;20471;-82
2023/01/25 05:00:52;;;;;;;46.17;24.40;;;8.90;48.20;;;;;;4994687;28;20469;-81
2023/01/25 05:03:21;;;;;;;45.93;24.63;;;8.90;48.30;;;;;;4992763;28;20455;-82
2023/01/25 05:05:49;;;;;;;45.93;24.30;;;9.00;48.00;;;;;;4992981;28;20477;-82
2023/01/25 05:08:17;;;;;;;44.57;25.50;;;9.00;47.80;;;;;;4995937;28;20896;-82
2023/01/25 05:10:45;;;;;;;47.10;24.23;;;9.00;47.70;;;;;;4991245;28;20488;-79
2023/01/25 05:13:13;;;;;;;43.07;23.67;;;9.00;48.30;;;;;;4985998;28;20457;-81
2023/01/25 05:15:41;;;;;;;45.43;24.43;;;9.00;47.60;;;;;;4996849;28;20445;-81
2023/01/25 05:18:10;;;;;;;48.83;25.23;;;8.90;47.50;;;;;;4991271;28;20445;-81
2023/01/25 05:20:39;;;;;;;44.37;24.30;;;9.00;47.40;;;;;;4996545;28;20473;-81
2023/01/25 05:23:07;;;;;;;43.33;24.33;;;8.90;48.40;;;;;;4995254;28;20449;-80
2023/01/25 05:28:20;;;;;;;39.77;22.43;;;9.00;47.80;;;;;;4998759;28;20441;-81
2023/01/25 05:30:48;;;;;;;44.53;24.93;;;8.90;47.30;;;;;;4998842;28;20468;-81
2023/01/25 05:33:17;;;;;;;44.00;24.63;;;8.90;48.00;;;;;;4996740;28;20460;-81
2023/01/25 05:35:46;;;;;;;45.87;23.50;;;8.80;47.50;;;;;;4997654;28;20533;-81
2023/01/25 05:38:13;;;;;;;44.90;23.90;;;8.80;48.40;;;;;;4995366;28;20464;-81
2023/01/25 05:40:42;;;;;;;46.40;25.57;;;8.80;47.70;;;;;;4994109;28;20481;-81
2023/01/25 05:43:10;;;;;;;44.33;24.83;;;8.80;47.90;;;;;;4993350;28;20449;-81
2023/01/25 05:45:39;;;;;;;47.17;25.40;;;8.70;47.50;;;;;;4997343;28;20477;-81
2023/01/25 05:48:07;;;;;;;48.70;25.60;;;8.70;48.10;;;;;;4997180;28;20479;-81
2023/01/25 05:50:36;;;;;;;48.17;25.43;;;8.70;48.10;;;;;;4996884;28;20500;-81
2023/01/25 05:53:04;;;;;;;48.93;25.30;;;8.70;48.10;;;;;;4995478;28;20477;-81
2023/01/25 05:55:34;;;;;;;51.63;26.73;;;8.70;47.90;;;;;;4993485;28;20473;-81
2023/01/25 05:58:02;;;;;;;53.03;27.60;;;8.70;48.00;;;;;;4997336;28;20456;-81
2023/01/25 06:00:30;;;;;;;49.23;26.50;;;8.60;47.80;;;;;;4988203;28;20468;-82
2023/01/25 06:03:00;;;;;;;48.77;26.70;;;8.60;48.30;;;;;;4996654;28;20463;-82
2023/01/25 06:05:28;;;;;;;51.77;27.03;;;8.60;48.60;;;;;;4997508;28;20480;-81
2023/01/25 06:07:59;;;;;;;53.40;28.23;;;8.60;48.40;;;;;;4994545;28;20461;-81
2023/01/25 06:10:27;;;;;;;50.43;26.70;;;8.70;48.80;;;;;;4996240;28;20476;-81
2023/01/25 06:12:57;;;;;;;58.57;30.30;;;8.70;48.20;;;;;;4997281;28;20445;-81
2023/01/25 06:15:25;;;;;;;58.40;28.90;;;8.70;48.00;;;;;;4995934;28;20442;-81
2023/01/25 06:17:54;;;;;;;54.87;28.63;;;8.70;48.10;;;;;;4996944;28;20457;-81
2023/01/25 06:20:22;;;;;;;60.00;29.80;;;8.70;48.40;;;;;;4996672;28;20469;-82
2023/01/25 06:22:50;;;;;;;65.40;31.50;;;8.70;47.60;;;;;;4994453;28;20450;-81
2023/01/25 06:25:19;;;;;;;60.30;30.50;;;8.70;47.80;;;;;;4995655;28;20454;-81
2023/01/25 06:27:48;;;;;;;61.80;30.77;;;8.70;48.40;;;;;;4995415;28;20480;-81
2023/01/25 06:30:16;;;;;;;57.90;29.63;;;8.60;48.10;;;;;;4996680;28;20481;-81
2023/01/25 06:32:44;;;;;;;56.17;28.67;;;8.50;49.00;;;;;;4992237;28;20453;-83
2023/01/25 06:35:12;;;;;;;57.47;28.80;;;8.60;48.60;;;;;;4994719;28;20489;-82
2023/01/25 06:37:40;;;;;;;58.43;29.33;;;8.60;48.80;;;;;;4994366;28;20972;-81
2023/01/25 06:40:09;;;;;;;58.23;28.50;;;8.60;48.30;;;;;;4991753;28;20539;-82
2023/01/25 06:42:38;;;;;;;57.30;28.40;;;8.50;48.50;;;;;;4996153;28;20480;-81
2023/01/25 06:45:08;;;;;;;55.43;27.77;;;8.50;48.70;;;;;;4994610;28;20464;-81
2023/01/25 06:47:36;;;;;;;55.07;27.33;;;8.50;48.90;;;;;;4989328;28;20508;-82
2023/01/25 06:50:05;;;;;;;55.97;27.90;;;8.60;48.60;;;;;;4988510;28;20487;-82
2023/01/25 06:52:35;;;;;;;54.23;27.40;;;8.60;48.40;;;;;;4995167;28;20449;-81
2023/01/25 06:55:03;;;;;;;54.07;28.43;;;8.60;48.70;;;;;;4992830;28;20469;-81
2023/01/25 06:57:31;;;;;;;53.23;27.73;;;8.60;48.50;;;;;;4992943;28;20449;-81
2023/01/25 07:00:01;;;;;;;53.90;27.40;;;8.70;48.40;;;;;;4992043;28;20477;-81
2023/01/25 07:02:29;;;;;;;49.60;25.50;;;8.60;47.80;;;;;;4993217;28;20465;-81
2023/01/25 07:04:57;;;;;;;54.20;28.07;;;8.60;48.20;;;;;;4990187;28;20478;-81
2023/01/25 07:07:25;;;;;;;50.50;25.40;;;8.70;48.00;;;;;;4991858;28;20480;-81
2023/01/25 07:09:53;;;;;;;53.40;26.87;;;8.60;48.30;;;;;;4992744;28;20500;-81
2023/01/25 07:12:21;;;;;;;47.63;24.67;;;8.50;47.80;;;;;;4991230;28;20464;-81
2023/01/25 07:14:50;;;;;;;51.40;25.53;;;8.60;48.60;;;;;;4993240;28;20469;-79
2023/01/25 07:17:19;;;;;;;47.07;24.70;;;8.50;48.30;;;;;;4990989;28;20456;-81
2023/01/25 07:19:47;;;;;;;46.60;24.07;;;8.50;48.50;;;;;;4993932;28;20476;-81
2023/01/25 07:22:16;;;;;;;48.07;24.70;;;8.50;48.10;;;;;;4988728;28;20509;-80
2023/01/25 07:24:48;;;;;;;50.87;25.70;;;8.50;49.00;;;;;;4993000;28;20457;-80
2023/01/25 07:27:16;;;;;;;53.67;26.13;;;8.50;48.70;;;;;;4992601;28;20467;-81
2023/01/25 07:29:44;;;;;;;48.43;24.17;;;8.50;48.80;;;;;;4993297;28;21306;-81
2023/01/25 07:32:12;;;;;;;52.07;25.47;;;8.50;48.70;;;;;;4985557;28;20456;-81
2023/01/25 07:34:42;;;;;;;46.37;23.77;;;8.50;49.00;;;;;;4993269;28;20449;-81
2023/01/25 07:37:10;;;;;;;50.63;25.37;;;8.60;50.30;;;;;;4989061;28;20458;-81
2023/01/25 07:39:39;;;;;;;49.60;24.47;;;8.60;49.10;;;;;;4990063;28;20481;-81
2023/01/25 07:42:07;;;;;;;42.50;22.63;;;8.70;48.90;;;;;;4993119;28;20458;-82
2023/01/25 07:44:35;;;;;;;44.13;23.07;;;8.60;48.50;;;;;;4993487;28;20453;-82
2023/01/25 07:47:03;;;;;;;44.30;23.00;;;8.70;48.90;;;;;;4989774;28;20473;-81
2023/01/25 07:49:31;;;;;;;47.30;23.10;;;8.60;49.00;;;;;;4990917;28;20575;-81
2023/01/25 07:52:01;;;;;;;44.30;23.03;;;8.70;48.80;;;;;;4988677;28;20460;-81
2023/01/25 07:54:29;;;;;;;45.27;23.67;;;8.70;48.80;;;;;;4991021;28;20453;-81
2023/01/25 07:56:57;;;;;;;43.50;23.70;;;8.60;48.90;;;;;;4990761;28;20480;-81
2023/01/25 07:59:25;;;;;;;44.20;21.90;;;8.60;48.70;;;;;;4993874;28;20513;-81
2023/01/25 08:01:53;;;;;;;46.77;23.33;;;8.60;49.10;;;;;;4995876;28;20453;-79
2023/01/25 08:04:21;;;;;;;44.73;22.40;;;8.60;49.00;;;;;;4994353;28;20461;-81
2023/01/25 08:06:49;;;;;;;46.20;23.20;;;8.70;48.40;;;;;;4995768;28;20480;-81
2023/01/25 08:09:19;;;;;;;46.00;22.70;;;8.60;48.60;;;;;;4998176;28;20461;-81
2023/01/25 08:11:48;;;;;;;44.83;21.90;;;8.60;48.70;;;;;;4998024;28;20563;-80
2023/01/25 08:14:16;;;;;;;42.87;22.47;;;8.60;48.70;;;;;;4996141;28;20500;-81
2023/01/25 08:16:45;;;;;;;42.17;22.50;;;8.70;48.80;;;;;;4998155;28;20445;-83
2023/01/25 08:19:13;;;;;;;43.03;22.70;;;8.60;48.50;;;;;;4996645;28;20496;-83
2023/01/25 08:21:41;;;;;;;46.30;23.30;;;8.60;48.70;;;;;;4994585;28;20463;-80
2023/01/25 08:24:10;;;;;;;46.17;22.73;;;8.60;48.30;;;;;;4994171;28;20461;-81
2023/01/25 08:26:39;;;;;;;40.57;21.20;;;8.60;48.30;;;;;;4995509;28;20473;-80
2023/01/25 08:29:08;;;;;;;40.53;21.83;;;8.60;49.20;;;;;;4994089;28;20457;-81
2023/01/25 08:31:36;;;;;;;41.33;20.80;;;8.70;49.20;;;;;;4990365;28;20464;-82
2023/01/25 08:34:04;;;;;;;47.17;22.90;;;8.70;49.00;;;;;;4995841;28;20461;-82
2023/01/25 08:36:32;;;;;;;41.03;21.97;;;8.60;48.70;;;;;;4996935;28;20453;-82
2023/01/25 08:39:01;;;;;;;39.80;20.63;;;8.60;48.70;;;;;;4997748;28;20529;-82
2023/01/25 08:41:30;;;;;;;39.90;21.30;;;8.60;49.10;;;;;;4995678;28;21015;-82
2023/01/25 08:44:00;;;;;;;42.20;20.73;;;8.60;48.90;;;;;;4994939;28;20463;-82
2023/01/25 08:46:29;;;;;;;47.90;23.03;;;8.70;49.20;;;;;;4995509;28;20532;-82
2023/01/25 08:48:59;;;;;;;44.70;21.10;;;8.80;48.50;;;;;;4997438;28;20499;-82
2023/01/25 08:51:27;;;;;;;45.50;23.33;;;8.70;48.70;;;;;;4995957;28;20469;-81
2023/01/25 08:53:55;;;;;;;43.90;20.87;;;8.70;48.50;;;;;;4995667;28;20463;-80
2023/01/25 08:56:23;;;;;;;43.07;21.30;;;8.60;48.60;;;;;;4993215;28;20481;-82
2023/01/25 08:58:51;;;;;;;38.60;20.00;;;8.60;48.30;;;;;;4995630;28;20453;-82
2023/01/25 09:01:21;;;;;;;43.17;21.30;;;8.40;48.60;;;;;;4994328;28;20473;-80
2023/01/25 09:03:50;;;;;;;38.27;19.90;;;8.30;48.50;;;;;;4996120;28;20453;-82
2023/01/25 09:06:19;;;;;;;41.47;21.03;;;8.40;48.80;;;;;;4994940;28;20499;-81
2023/01/25 09:08:47;;;;;;;37.80;19.43;;;8.50;48.70;;;;;;4995566;28;20477;-82
2023/01/25 09:11:17;;;;;;;41.67;20.97;;;8.40;48.20;;;;;;4995806;28;20480;-82
2023/01/25 09:13:44;;;;;;;39.73;21.13;;;8.40;48.70;;;;;;4989853;28;20457;-82
2023/01/25 09:16:14;;;;;;;42.50;21.60;;;8.50;48.60;;;;;;4994252;28;20449;-82
2023/01/25 09:18:44;;;;;;;42.20;20.53;;;8.40;48.20;;;;;;4991748;28;20451;-82
2023/01/25 09:21:13;;;;;;;39.63;21.07;;;8.50;49.10;;;;;;4997848;28;20472;-82
2023/01/25 09:23:43;;;;;;;42.47;22.10;;;8.60;48.70;;;;;;4991679;28;20552;-80
2023/01/25 09:26:24;;;;;;;42.20;20.80;;;8.60;48.40;;;;;;4995959;28;20481;-81
2023/01/25 09:28:52;;;;;;;43.37;21.70;;;8.60;48.10;;;;;;4996515;28;20553;-82
2023/01/25 09:31:21;;;;;;;41.93;21.17;;;8.60;48.20;;;;;;4993331;28;21008;-82
2023/01/25 09:33:52;;;;;;;39.30;20.93;;;8.60;48.60;;;;;;4996047;28;20454;-82
2023/01/25 09:36:20;;;;;;;42.30;20.53;;;8.80;48.60;;;;;;4993264;28;20454;-81
2023/01/25 09:38:48;;;;;;;43.10;21.90;;;8.80;48.20;;;;;;4988977;28;20457;-81
2023/01/25 09:41:26;;;;;;;43.13;20.43;;;8.80;47.80;;;;;;4993195;28;20473;-81
2023/01/25 09:44:04;;;;;;;43.90;21.67;;;8.80;47.60;;;;;;4990329;28;20454;-82
2023/01/25 09:46:43;;;;;;;43.60;21.23;;;8.70;47.60;;;;;;4994441;28;20460;-81
2023/01/25 09:49:21;;;;;;;46.30;21.93;;;8.70;48.60;;;;;;4990108;28;20483;-80
2023/01/25 09:52:01;;;;;;;42.67;21.67;;;8.70;47.80;;;;;;4991776;28;20465;-79
2023/01/25 09:54:30;;;;;;;45.47;23.47;;;8.70;48.00;;;;;;4992245;28;20452;-79
2023/01/25 09:57:02;;;;;;;47.80;23.40;;;8.70;48.70;;;;;;4988537;28;20538;-81
2023/01/25 09:59:30;;;;;;;47.77;23.43;;;8.80;48.20;;;;;;4987286;28;20477;-82
2023/01/25 10:02:00;;;;;;;49.23;24.00;;;8.70;48.20;;;;;;4981142;28;20450;-82
2023/01/25 10:04:30;;;;;;;45.13;22.80;;;8.70;48.50;;;;;;4980094;28;20464;-83
2023/01/25 10:06:59;;;;;;;43.80;22.20;;;8.60;48.40;;;;;;4982436;28;20434;-82
2023/01/25 10:09:34;;;;;;;47.83;23.63;;;8.50;48.60;;;;;;4984862;28;21049;-82
2023/01/25 10:12:06;;;;;;;43.83;22.13;;;8.50;48.50;;;;;;4989425;28;20465;-82
2023/01/25 10:14:34;;;;;;;44.40;21.93;;;8.50;48.50;;;;;;4993957;28;20491;-82
2023/01/25 10:17:06;;;;;;;46.23;23.07;;;8.60;48.70;;;;;;4992680;28;20499;-82
2023/01/25 10:19:50;;;;;;;46.73;23.70;;;8.60;48.40;;;;;;4987726;28;20457;-79
2023/01/25 10:22:19;;;;;;;44.57;22.30;;;8.70;48.70;;;;;;4987424;28;20444;-81
2023/01/25 10:24:58;;;;;;;43.67;21.30;;;8.60;48.30;;;;;;4988843;28;20434;-81
2023/01/25 10:27:28;;;;;;;46.97;22.77;;;8.60;48.30;;;;;;4992144;28;20445;-80
2023/01/25 10:29:57;;;;;;;42.33;22.13;;;8.60;48.30;;;;;;4989906;28;20476;-80
2023/01/25 10:32:27;;;;;;;42.47;21.30;;;8.60;47.70;;;;;;4988805;28;20466;-79
2023/01/25 10:34:57;;;;;;;45.43;22.40;;;8.60;48.40;;;;;;4987902;28;20457;-77
2023/01/25 10:37:25;;;;;;;40.30;20.87;;;8.60;48.20;;;;;;4990759;28;20465;-79
2023/01/25 10:39:56;;;;;;;40.20;20.40;;;8.50;48.60;;;;;;4988288;28;20985;-79
2023/01/25 10:42:25;;;;;;;39.90;21.37;;;8.50;48.20;;;;;;4984361;28;20445;-80
2023/01/25 10:44:53;;;;;;;40.30;20.07;;;8.60;48.10;;;;;;4989882;28;20445;-80
2023/01/25 10:47:23;;;;;;;39.50;21.50;;;8.60;48.30;;;;;;4991696;28;20450;-80
2023/01/25 10:49:52;;;;;;;41.43;21.40;;;8.70;48.60;;;;;;4989226;28;20483;-80
2023/01/25 10:52:22;;;;;;;40.13;19.90;;;8.60;48.50;;;;;;4993033;28;20454;-79
2023/01/25 10:55:13;;;;;;;38.53;19.97;;;8.60;48.30;;;;;;4994325;28;20434;-81
2023/01/25 10:57:43;;;;;;;42.10;20.17;;;8.70;48.10;;;;;;4990954;28;20444;-78
2023/01/25 11:00:19;;;;;;;40.90;20.30;;;8.50;47.80;;;;;;4990909;28;20475;-78
2023/01/25 11:02:48;;;;;;;41.80;20.77;;;8.60;48.20;;;;;;4982317;28;20440;-78
2023/01/25 11:05:28;;;;;;;40.47;21.07;;;8.60;48.20;;;;;;4991685;28;20441;-78
2023/01/25 11:07:57;;;;;;;39.10;19.73;;;8.70;48.00;;;;;;4980323;28;20474;-81
2023/01/25 11:10:30;;;;;;;40.20;19.90;;;8.40;47.70;;;;;;4992521;28;20465;-81
2023/01/25 11:13:22;;;;;;;40.07;20.00;;;8.50;48.70;;;;;;4986491;28;20610;-80
2023/01/25 11:15:51;;;;;;;44.27;22.07;;;8.60;48.30;;;;;;4988092;28;20442;-81
2023/01/25 11:18:21;;;;;;;41.27;21.13;;;8.40;47.40;;;;;;4988692;28;20438;-83
2023/01/25 11:21:05;;;;;;;41.70;20.70;;;8.40;47.80;;;;;;4993522;28;20461;-82
2023/01/25 11:23:34;;;;;;;36.07;18.57;;;8.50;48.10;;;;;;4993372;28;20452;-81
2023/01/25 11:26:12;;;;;;;41.93;20.90;;;8.50;48.30;;;;;;4994882;28;20469;-82
2023/01/25 11:28:39;;;;;;;39.20;20.20;;;8.40;47.50;;;;;;4994347;28;20476;-81
2023/01/25 11:31:10;;;;;;;41.03;20.30;;;8.50;47.90;;;;;;4993337;28;20480;-82
2023/01/25 11:33:38;;;;;;;38.30;20.07;;;8.50;48.10;;;;;;4991565;28;20445;-83
2023/01/25 11:36:15;;;;;;;46.80;22.10;;;8.50;47.90;;;;;;4992339;28;20449;-82
2023/01/25 11:39:05;;;;;;;39.53;20.10;;;8.50;47.40;;;;;;4987769;28;20441;-81
2023/01/25 11:41:36;;;;;;;42.20;21.37;;;8.60;47.80;;;;;;4996252;28;20468;-81
2023/01/25 11:44:21;;;;;;;40.97;20.90;;;8.70;47.60;;;;;;4998858;28;20470;-82
2023/01/25 11:46:55;;;;;;;47.43;22.17;;;8.60;47.20;;;;;;4991938;28;20433;-82
2023/01/25 11:49:33;;;;;;;46.10;23.00;;;8.30;47.10;;;;;;4998889;28;20469;-82
2023/01/25 11:52:05;;;;;;;51.43;24.97;;;8.30;47.40;;;;;;4998880;28;20441;-82
2023/01/25 11:54:42;;;;;;;53.20;25.70;;;8.50;48.40;;;;;;4997979;28;20457;-82
2023/01/25 11:57:21;;;;;;;49.70;25.43;;;8.40;47.80;;;;;;4998414;28;20468;-81
2023/01/25 11:59:55;;;;;;;49.13;23.80;;;8.30;47.50;;;;;;4986051;28;20481;-82
2023/01/25 12:02:47;;;;;;;50.77;24.90;;;8.30;48.40;;;;;;4997059;28;20468;-81
2023/01/25 12:05:23;;;;;;;60.00;26.33;;;8.30;48.10;;;;;;4998860;28;20473;-82
2023/01/25 12:07:55;;;;;;;56.37;26.47;;;8.40;47.90;;;;;;4993235;28;20441;-82
2023/01/25 12:10:27;;;;;;;57.47;27.03;;;8.50;47.90;;;;;;4997914;28;20473;-82
2023/01/25 12:12:57;;;;;;;58.63;28.07;;;8.40;48.10;;;;;;4999022;28;20449;-81
2023/01/25 12:15:43;;;;;;;59.37;27.50;;;8.30;48.00;;;;;;4999047;28;20453;-82
2023/01/25 12:18:21;;;;;;;65.00;29.00;;;8.20;47.60;;;;;;4999195;28;20448;-81
2023/01/25 12:21:00;;;;;;;64.37;30.23;;;8.10;47.80;;;;;;4995548;28;20465;-82
2023/01/25 12:23:35;;;;;;;63.63;29.60;;;8.20;48.50;;;;;;4999145;28;20543;-82
2023/01/25 12:26:12;;;;;;;60.40;27.53;;;8.20;48.20;;;;;;4993004;28;20460;-82
2023/01/25 12:28:42;;;;;;;65.77;28.60;;;8.40;48.50;;;;;;4992275;28;20473;-81
2023/01/25 12:31:13;;;;;;;66.57;30.10;;;8.40;48.10;;;;;;4988540;28;20465;-82
2023/01/25 12:33:42;;;;;;;65.00;30.20;;;8.20;47.50;;;;;;4979832;28;20438;-81
2023/01/25 12:36:13;;;;;;;64.30;29.67;;;8.00;48.00;;;;;;4987735;28;20451;-82
2023/01/25 12:38:42;;;;;;;65.10;29.03;;;8.00;48.30;;;;;;4995124;28;20452;-82
2023/01/25 12:41:19;;;;;;;61.50;28.60;;;8.20;48.80;;;;;;4991246;28;20476;-81
2023/01/25 12:43:50;;;;;;;66.10;30.43;;;8.30;48.10;;;;;;4988435;28;20456;-81
2023/01/25 12:46:26;;;;;;;70.57;31.63;;;8.30;48.00;;;;;;4985972;28;20464;-82
2023/01/25 12:48:54;;;;;;;64.17;29.70;;;8.30;48.10;;;;;;4993947;28;20476;-82
2023/01/25 12:51:22;;;;;;;67.90;31.00;;;8.20;48.80;;;;;;4987370;28;20483;-82